sensor_id;sensor_type;location;lat;lon;timestamp;temperature;humidity
21429;DHT22;10875;50.444;30.540;2022-08-19T00:00:07;20.60;99.90
21429;DHT22;10875;50.444;30.540;2022-08-19T00:02:34;20.60;99.90
21429;DHT22;10875;50.444;30.540;2022-08-19T00:04:59;20.60;99.90
21429;DHT22;10875;50.444;30.540;2022-08-19T00:07:25;20.50;99.90
21429;DHT22;10875;50.444;30.540;2022-08-19T00:09:50;20.50;99.90
21429;DHT22;10875;50.444;30.540;2022-08-19T00:12:16;20.50;99.90
21429;DHT22;10875;50.444;30.540;2022-08-19T00:14:42;20.50;99.90
21429;DHT22;10875;50.444;30.540;2022-08-19T00:17:08;20.40;99.90
21429;DHT22;10875;50.444;30.540;2022-08-19T00:19:35;20.40;99.90
21429;DHT22;10875;50.444;30.540;2022-08-19T00:22:01;20.40;99.90
21429;DHT22;10875;50.444;30.540;2022-08-19T00:24:28;20.40;99.90
21429;DHT22;10875;50.444;30.540;2022-08-19T00:26:54;20.40;99.90
21429;DHT22;10875;50.444;30.540;2022-08-19T00:29:23;20.30;99.90
21429;DHT22;10875;50.444;30.540;2022-08-19T00:31:48;20.30;99.90
21429;DHT22;10875;50.444;30.540;2022-08-19T00:34:15;20.30;99.90
21429;DHT22;10875;50.444;30.540;2022-08-19T00:36:42;20.20;99.90
21429;DHT22;10875;50.444;30.540;2022-08-19T00:39:09;20.30;99.90
21429;DHT22;10875;50.444;30.540;2022-08-19T00:41:35;20.30;99.90
21429;DHT22;10875;50.444;30.540;2022-08-19T00:44:15;20.20;99.90
21429;DHT22;10875;50.444;30.540;2022-08-19T00:46:44;20.20;99.90
21429;DHT22;10875;50.444;30.540;2022-08-19T00:49:19;20.20;99.90
21429;DHT22;10875;50.444;30.540;2022-08-19T00:51:47;20.10;99.90
21429;DHT22;10875;50.444;30.540;2022-08-19T00:54:15;20.10;99.90
21429;DHT22;10875;50.444;30.540;2022-08-19T00:56:42;20.10;99.90
21429;DHT22;10875;50.444;30.540;2022-08-19T00:59:08;20.10;99.90
21429;DHT22;10875;50.444;30.540;2022-08-19T01:01:41;20.10;99.90
21429;DHT22;10875;50.444;30.540;2022-08-19T01:04:07;20.10;99.90
21429;DHT22;10875;50.444;30.540;2022-08-19T01:06:35;20.10;99.90
21429;DHT22;10875;50.444;30.540;2022-08-19T01:09:03;20.00;99.90
21429;DHT22;10875;50.444;30.540;2022-08-19T01:11:31;20.00;99.90
21429;DHT22;10875;50.444;30.540;2022-08-19T01:13:58;20.00;99.90
21429;DHT22;10875;50.444;30.540;2022-08-19T01:16:27;20.00;99.90
21429;DHT22;10875;50.444;30.540;2022-08-19T01:18:53;20.00;99.90
21429;DHT22;10875;50.444;30.540;2022-08-19T01:21:32;20.00;99.90
21429;DHT22;10875;50.444;30.540;2022-08-19T01:23:59;20.00;99.90
21429;DHT22;10875;50.444;30.540;2022-08-19T01:26:26;20.00;99.90
21429;DHT22;10875;50.444;30.540;2022-08-19T01:28:55;20.00;99.90
21429;DHT22;10875;50.444;30.540;2022-08-19T01:31:24;20.00;99.90
21429;DHT22;10875;50.444;30.540;2022-08-19T01:33:52;20.00;99.90
21429;DHT22;10875;50.444;30.540;2022-08-19T01:36:27;20.00;99.90
21429;DHT22;10875;50.444;30.540;2022-08-19T01:38:53;19.90;99.90
21429;DHT22;10875;50.444;30.540;2022-08-19T01:41:19;19.90;99.90
21429;DHT22;10875;50.444;30.540;2022-08-19T01:43:45;19.90;99.90
21429;DHT22;10875;50.444;30.540;2022-08-19T01:46:11;19.80;99.90
21429;DHT22;10875;50.444;30.540;2022-08-19T01:48:39;19.80;99.90
21429;DHT22;10875;50.444;30.540;2022-08-19T01:51:06;19.80;99.90
21429;DHT22;10875;50.444;30.540;2022-08-19T01:53:32;19.80;99.90
21429;DHT22;10875;50.444;30.540;2022-08-19T01:55:58;19.70;99.90
21429;DHT22;10875;50.444;30.540;2022-08-19T01:58:27;19.80;99.90
21429;DHT22;10875;50.444;30.540;2022-08-19T02:00:55;19.70;99.90
21429;DHT22;10875;50.444;30.540;2022-08-19T02:03:21;19.70;99.90
21429;DHT22;10875;50.444;30.540;2022-08-19T02:05:48;19.70;99.90
21429;DHT22;10875;50.444;30.540;2022-08-19T02:08:18;19.70;99.90
21429;DHT22;10875;50.444;30.540;2022-08-19T02:10:44;19.70;99.90
21429;DHT22;10875;50.444;30.540;2022-08-19T02:13:11;19.70;99.90
21429;DHT22;10875;50.444;30.540;2022-08-19T02:15:37;19.60;99.90
21429;DHT22;10875;50.444;30.540;2022-08-19T02:18:03;19.60;99.90
21429;DHT22;10875;50.444;30.540;2022-08-19T02:20:29;19.60;99.90
21429;DHT22;10875;50.444;30.540;2022-08-19T02:22:54;19.50;99.90
21429;DHT22;10875;50.444;30.540;2022-08-19T02:25:20;19.50;99.90
21429;DHT22;10875;50.444;30.540;2022-08-19T02:27:46;19.40;99.90
21429;DHT22;10875;50.444;30.540;2022-08-19T02:30:15;19.40;99.90
21429;DHT22;10875;50.444;30.540;2022-08-19T02:32:41;19.40;99.90
21429;DHT22;10875;50.444;30.540;2022-08-19T02:35:08;19.30;99.90
21429;DHT22;10875;50.444;30.540;2022-08-19T02:37:34;19.30;99.90
21429;DHT22;10875;50.444;30.540;2022-08-19T02:40:18;19.20;99.90
21429;DHT22;10875;50.444;30.540;2022-08-19T02:42:44;19.30;99.90
21429;DHT22;10875;50.444;30.540;2022-08-19T02:45:11;19.20;99.90
21429;DHT22;10875;50.444;30.540;2022-08-19T02:47:37;19.20;99.90
21429;DHT22;10875;50.444;30.540;2022-08-19T02:50:04;19.20;99.90
21429;DHT22;10875;50.444;30.540;2022-08-19T02:52:31;19.20;99.90
21429;DHT22;10875;50.444;30.540;2022-08-19T02:54:56;19.10;99.90
21429;DHT22;10875;50.444;30.540;2022-08-19T02:57:23;19.20;99.90
21429;DHT22;10875;50.444;30.540;2022-08-19T02:59:49;19.00;99.90
21429;DHT22;10875;50.444;30.540;2022-08-19T03:02:16;19.00;99.90
21429;DHT22;10875;50.444;30.540;2022-08-19T03:04:42;19.00;99.90
21429;DHT22;10875;50.444;30.540;2022-08-19T03:07:08;19.00;99.90
21429;DHT22;10875;50.444;30.540;2022-08-19T03:09:36;19.10;99.90
21429;DHT22;10875;50.444;30.540;2022-08-19T03:12:03;19.00;99.90
21429;DHT22;10875;50.444;30.540;2022-08-19T03:14:33;19.00;99.90
21429;DHT22;10875;50.444;30.540;2022-08-19T03:16:59;19.00;99.90
21429;DHT22;10875;50.444;30.540;2022-08-19T03:19:25;19.00;99.90
21429;DHT22;10875;50.444;30.540;2022-08-19T03:21:52;19.00;99.90
21429;DHT22;10875;50.444;30.540;2022-08-19T03:24:18;19.00;99.90
21429;DHT22;10875;50.444;30.540;2022-08-19T03:26:46;19.00;99.90
21429;DHT22;10875;50.444;30.540;2022-08-19T03:29:12;19.00;99.90
21429;DHT22;10875;50.444;30.540;2022-08-19T03:31:39;19.10;99.90
21429;DHT22;10875;50.444;30.540;2022-08-19T03:34:06;19.10;99.90
21429;DHT22;10875;50.444;30.540;2022-08-19T03:36:32;19.10;99.90
21429;DHT22;10875;50.444;30.540;2022-08-19T03:38:59;19.20;99.90
21429;DHT22;10875;50.444;30.540;2022-08-19T03:41:30;19.30;99.90
21429;DHT22;10875;50.444;30.540;2022-08-19T03:43:57;19.20;99.90
21429;DHT22;10875;50.444;30.540;2022-08-19T03:46:28;19.20;99.90
21429;DHT22;10875;50.444;30.540;2022-08-19T03:48:55;19.20;99.90
21429;DHT22;10875;50.444;30.540;2022-08-19T03:51:27;19.20;99.90
21429;DHT22;10875;50.444;30.540;2022-08-19T03:53:55;19.20;99.90
21429;DHT22;10875;50.444;30.540;2022-08-19T03:56:21;19.30;99.90
21429;DHT22;10875;50.444;30.540;2022-08-19T03:58:47;19.20;99.90
21429;DHT22;10875;50.444;30.540;2022-08-19T04:01:22;19.20;99.90
21429;DHT22;10875;50.444;30.540;2022-08-19T04:03:49;19.30;99.90
21429;DHT22;10875;50.444;30.540;2022-08-19T04:06:20;19.30;99.90
21429;DHT22;10875;50.444;30.540;2022-08-19T04:08:48;19.30;99.90
21429;DHT22;10875;50.444;30.540;2022-08-19T04:11:17;19.30;99.90
21429;DHT22;10875;50.444;30.540;2022-08-19T04:13:43;19.30;99.90
21429;DHT22;10875;50.444;30.540;2022-08-19T04:16:10;19.30;99.90
21429;DHT22;10875;50.444;30.540;2022-08-19T04:18:37;19.30;99.90
21429;DHT22;10875;50.444;30.540;2022-08-19T04:21:04;19.30;99.90
21429;DHT22;10875;50.444;30.540;2022-08-19T04:23:31;19.30;99.90
21429;DHT22;10875;50.444;30.540;2022-08-19T04:25:57;19.30;99.90
21429;DHT22;10875;50.444;30.540;2022-08-19T04:28:23;19.30;99.90
21429;DHT22;10875;50.444;30.540;2022-08-19T04:30:52;19.40;99.90
21429;DHT22;10875;50.444;30.540;2022-08-19T04:33:21;19.30;99.90
21429;DHT22;10875;50.444;30.540;2022-08-19T04:35:50;19.30;99.90
21429;DHT22;10875;50.444;30.540;2022-08-19T04:38:16;19.40;99.90
21429;DHT22;10875;50.444;30.540;2022-08-19T04:40:48;19.40;99.90
21429;DHT22;10875;50.444;30.540;2022-08-19T04:43:46;19.40;99.90
21429;DHT22;10875;50.444;30.540;2022-08-19T04:46:15;19.50;99.90
21429;DHT22;10875;50.444;30.540;2022-08-19T04:48:42;19.60;99.90
21429;DHT22;10875;50.444;30.540;2022-08-19T04:51:11;19.50;99.90
21429;DHT22;10875;50.444;30.540;2022-08-19T04:53:39;19.50;99.90
21429;DHT22;10875;50.444;30.540;2022-08-19T04:56:09;19.50;99.90
21429;DHT22;10875;50.444;30.540;2022-08-19T04:58:36;19.60;99.90
21429;DHT22;10875;50.444;30.540;2022-08-19T05:01:03;19.60;99.90
21429;DHT22;10875;50.444;30.540;2022-08-19T05:03:28;19.60;99.90
21429;DHT22;10875;50.444;30.540;2022-08-19T05:05:58;19.70;99.90
21429;DHT22;10875;50.444;30.540;2022-08-19T05:08:23;19.70;99.90
21429;DHT22;10875;50.444;30.540;2022-08-19T05:10:51;19.80;99.90
21429;DHT22;10875;50.444;30.540;2022-08-19T05:13:18;19.80;99.90
21429;DHT22;10875;50.444;30.540;2022-08-19T05:15:45;19.80;99.90
21429;DHT22;10875;50.444;30.540;2022-08-19T05:18:18;19.90;99.90
21429;DHT22;10875;50.444;30.540;2022-08-19T05:21:08;20.00;99.90
21429;DHT22;10875;50.444;30.540;2022-08-19T05:23:54;20.00;99.90
21429;DHT22;10875;50.444;30.540;2022-08-19T05:26:19;20.00;99.90
21429;DHT22;10875;50.444;30.540;2022-08-19T05:28:45;20.10;99.90
21429;DHT22;10875;50.444;30.540;2022-08-19T05:31:11;20.10;99.90
21429;DHT22;10875;50.444;30.540;2022-08-19T05:33:36;20.20;99.90
21429;DHT22;10875;50.444;30.540;2022-08-19T05:36:03;20.20;99.90
21429;DHT22;10875;50.444;30.540;2022-08-19T05:38:29;20.20;99.90
21429;DHT22;10875;50.444;30.540;2022-08-19T05:40:55;20.20;99.90
21429;DHT22;10875;50.444;30.540;2022-08-19T05:43:21;20.20;99.90
21429;DHT22;10875;50.444;30.540;2022-08-19T05:45:46;20.30;99.90
21429;DHT22;10875;50.444;30.540;2022-08-19T05:48:12;20.30;99.90
21429;DHT22;10875;50.444;30.540;2022-08-19T05:50:39;20.40;99.90
21429;DHT22;10875;50.444;30.540;2022-08-19T05:53:05;20.40;99.90
21429;DHT22;10875;50.444;30.540;2022-08-19T05:55:32;20.50;99.90
21429;DHT22;10875;50.444;30.540;2022-08-19T05:57:58;20.60;99.90
21429;DHT22;10875;50.444;30.540;2022-08-19T06:00:23;20.60;99.90
21429;DHT22;10875;50.444;30.540;2022-08-19T06:02:49;20.60;99.90
21429;DHT22;10875;50.444;30.540;2022-08-19T06:05:16;20.50;99.90
21429;DHT22;10875;50.444;30.540;2022-08-19T06:07:42;20.60;99.90
21429;DHT22;10875;50.444;30.540;2022-08-19T06:10:09;20.60;99.90
21429;DHT22;10875;50.444;30.540;2022-08-19T06:12:36;20.70;99.90
21429;DHT22;10875;50.444;30.540;2022-08-19T06:15:06;20.80;99.90
21429;DHT22;10875;50.444;30.540;2022-08-19T06:17:32;20.80;99.90
21429;DHT22;10875;50.444;30.540;2022-08-19T06:20:00;20.80;99.90
21429;DHT22;10875;50.444;30.540;2022-08-19T06:22:26;20.90;99.90
21429;DHT22;10875;50.444;30.540;2022-08-19T06:24:52;21.00;99.90
21429;DHT22;10875;50.444;30.540;2022-08-19T06:27:19;21.00;99.90
21429;DHT22;10875;50.444;30.540;2022-08-19T06:29:45;21.00;99.90
21429;DHT22;10875;50.444;30.540;2022-08-19T06:32:14;21.10;99.90
21429;DHT22;10875;50.444;30.540;2022-08-19T06:34:40;21.10;99.90
21429;DHT22;10875;50.444;30.540;2022-08-19T06:37:06;21.20;99.90
21429;DHT22;10875;50.444;30.540;2022-08-19T06:39:36;21.30;99.90
21429;DHT22;10875;50.444;30.540;2022-08-19T06:42:05;21.30;99.90
21429;DHT22;10875;50.444;30.540;2022-08-19T06:44:34;21.40;99.90
21429;DHT22;10875;50.444;30.540;2022-08-19T06:47:05;21.50;99.90
21429;DHT22;10875;50.444;30.540;2022-08-19T06:49:32;21.60;99.90
21429;DHT22;10875;50.444;30.540;2022-08-19T06:51:58;21.60;99.90
21429;DHT22;10875;50.444;30.540;2022-08-19T06:54:25;21.70;99.90
21429;DHT22;10875;50.444;30.540;2022-08-19T06:56:52;21.70;99.90
21429;DHT22;10875;50.444;30.540;2022-08-19T06:59:21;21.70;99.90
21429;DHT22;10875;50.444;30.540;2022-08-19T07:01:50;21.80;99.90
21429;DHT22;10875;50.444;30.540;2022-08-19T07:04:18;21.80;99.90
21429;DHT22;10875;50.444;30.540;2022-08-19T07:06:44;21.90;99.90
21429;DHT22;10875;50.444;30.540;2022-08-19T07:09:14;22.00;99.90
21429;DHT22;10875;50.444;30.540;2022-08-19T07:11:45;22.10;99.90
21429;DHT22;10875;50.444;30.540;2022-08-19T07:14:11;22.20;99.90
21429;DHT22;10875;50.444;30.540;2022-08-19T07:16:37;22.30;99.90
21429;DHT22;10875;50.444;30.540;2022-08-19T07:19:02;22.30;99.90
21429;DHT22;10875;50.444;30.540;2022-08-19T07:21:28;22.40;99.90
21429;DHT22;10875;50.444;30.540;2022-08-19T07:23:56;22.40;99.90
21429;DHT22;10875;50.444;30.540;2022-08-19T07:26:29;22.40;99.90
21429;DHT22;10875;50.444;30.540;2022-08-19T07:28:56;22.50;99.90
21429;DHT22;10875;50.444;30.540;2022-08-19T07:31:24;22.60;99.90
21429;DHT22;10875;50.444;30.540;2022-08-19T07:33:52;22.60;99.90
21429;DHT22;10875;50.444;30.540;2022-08-19T07:36:20;22.70;99.90
21429;DHT22;10875;50.444;30.540;2022-08-19T07:38:48;22.70;99.90
21429;DHT22;10875;50.444;30.540;2022-08-19T07:41:20;22.80;99.90
21429;DHT22;10875;50.444;30.540;2022-08-19T07:43:47;22.90;99.90
21429;DHT22;10875;50.444;30.540;2022-08-19T07:46:13;23.10;99.90
21429;DHT22;10875;50.444;30.540;2022-08-19T07:48:41;23.10;99.90
21429;DHT22;10875;50.444;30.540;2022-08-19T07:51:08;23.20;99.90
21429;DHT22;10875;50.444;30.540;2022-08-19T07:53:36;23.40;99.90
21429;DHT22;10875;50.444;30.540;2022-08-19T07:56:03;23.50;99.90
21429;DHT22;10875;50.444;30.540;2022-08-19T07:58:38;23.60;99.90
21429;DHT22;10875;50.444;30.540;2022-08-19T08:01:07;23.70;99.90
21429;DHT22;10875;50.444;30.540;2022-08-19T08:03:33;23.90;99.90
21429;DHT22;10875;50.444;30.540;2022-08-19T08:06:18;24.00;99.90
21429;DHT22;10875;50.444;30.540;2022-08-19T08:09:03;24.00;99.90
21429;DHT22;10875;50.444;30.540;2022-08-19T08:11:55;24.00;99.90
21429;DHT22;10875;50.444;30.540;2022-08-19T08:14:39;24.20;99.90
21429;DHT22;10875;50.444;30.540;2022-08-19T08:17:07;24.30;99.90
21429;DHT22;10875;50.444;30.540;2022-08-19T08:19:33;24.40;99.90
21429;DHT22;10875;50.444;30.540;2022-08-19T08:21:59;24.60;99.90
21429;DHT22;10875;50.444;30.540;2022-08-19T08:24:27;24.70;99.90
21429;DHT22;10875;50.444;30.540;2022-08-19T08:26:54;24.90;99.90
21429;DHT22;10875;50.444;30.540;2022-08-19T08:29:19;25.00;99.90
21429;DHT22;10875;50.444;30.540;2022-08-19T08:31:46;25.10;99.90
21429;DHT22;10875;50.444;30.540;2022-08-19T08:34:13;25.20;99.90
21429;DHT22;10875;50.444;30.540;2022-08-19T08:36:42;25.20;99.90
21429;DHT22;10875;50.444;30.540;2022-08-19T08:39:09;25.30;99.90
21429;DHT22;10875;50.444;30.540;2022-08-19T08:41:37;25.50;99.90
21429;DHT22;10875;50.444;30.540;2022-08-19T08:44:17;25.60;99.90
21429;DHT22;10875;50.444;30.540;2022-08-19T08:46:49;25.70;99.90
21429;DHT22;10875;50.444;30.540;2022-08-19T08:49:39;25.80;99.90
21429;DHT22;10875;50.444;30.540;2022-08-19T08:52:11;25.90;99.90
21429;DHT22;10875;50.444;30.540;2022-08-19T08:54:41;26.20;99.90
21429;DHT22;10875;50.444;30.540;2022-08-19T08:57:19;26.40;99.90
21429;DHT22;10875;50.444;30.540;2022-08-19T08:59:48;26.60;99.90
21429;DHT22;10875;50.444;30.540;2022-08-19T09:02:16;26.70;99.90
21429;DHT22;10875;50.444;30.540;2022-08-19T09:04:42;26.80;99.90
21429;DHT22;10875;50.444;30.540;2022-08-19T09:09:54;27.00;99.90
21429;DHT22;10875;50.444;30.540;2022-08-19T09:12:40;27.10;99.90
21429;DHT22;10875;50.444;30.540;2022-08-19T09:15:12;27.10;99.90
21429;DHT22;10875;50.444;30.540;2022-08-19T09:17:38;27.00;99.90
21429;DHT22;10875;50.444;30.540;2022-08-19T09:20:14;27.00;99.90
21429;DHT22;10875;50.444;30.540;2022-08-19T09:22:41;26.90;99.90
21429;DHT22;10875;50.444;30.540;2022-08-19T09:25:15;26.90;99.90
21429;DHT22;10875;50.444;30.540;2022-08-19T09:27:42;27.00;99.90
21429;DHT22;10875;50.444;30.540;2022-08-19T09:30:14;26.90;99.90
21429;DHT22;10875;50.444;30.540;2022-08-19T09:32:40;26.80;99.90
21429;DHT22;10875;50.444;30.540;2022-08-19T09:35:07;26.90;99.90
21429;DHT22;10875;50.444;30.540;2022-08-19T09:37:33;26.90;99.90
21429;DHT22;10875;50.444;30.540;2022-08-19T09:39:59;27.00;99.90
21429;DHT22;10875;50.444;30.540;2022-08-19T09:42:24;27.20;99.90
21429;DHT22;10875;50.444;30.540;2022-08-19T09:44:50;27.30;99.90
21429;DHT22;10875;50.444;30.540;2022-08-19T09:47:15;27.20;99.90
21429;DHT22;10875;50.444;30.540;2022-08-19T09:49:41;27.00;99.90
21429;DHT22;10875;50.444;30.540;2022-08-19T09:52:11;26.80;99.90
21429;DHT22;10875;50.444;30.540;2022-08-19T09:54:38;26.50;99.90
21429;DHT22;10875;50.444;30.540;2022-08-19T09:57:04;26.30;99.90
21429;DHT22;10875;50.444;30.540;2022-08-19T09:59:30;26.20;99.90
21429;DHT22;10875;50.444;30.540;2022-08-19T10:01:55;26.30;99.90
21429;DHT22;10875;50.444;30.540;2022-08-19T10:04:22;26.40;99.90
21429;DHT22;10875;50.444;30.540;2022-08-19T10:06:48;26.60;99.90
21429;DHT22;10875;50.444;30.540;2022-08-19T10:09:15;26.80;99.90
21429;DHT22;10875;50.444;30.540;2022-08-19T10:11:43;26.90;99.90
21429;DHT22;10875;50.444;30.540;2022-08-19T10:14:10;26.70;99.90
21429;DHT22;10875;50.444;30.540;2022-08-19T10:16:37;26.60;99.90
21429;DHT22;10875;50.444;30.540;2022-08-19T10:19:02;26.40;99.90
21429;DHT22;10875;50.444;30.540;2022-08-19T10:21:31;26.30;99.90
21429;DHT22;10875;50.444;30.540;2022-08-19T10:23:59;26.20;99.90
21429;DHT22;10875;50.444;30.540;2022-08-19T10:26:27;25.90;99.90
21429;DHT22;10875;50.444;30.540;2022-08-19T10:28:54;25.70;99.90
21429;DHT22;10875;50.444;30.540;2022-08-19T10:31:23;25.50;99.90
21429;DHT22;10875;50.444;30.540;2022-08-19T10:33:49;25.30;99.90
21429;DHT22;10875;50.444;30.540;2022-08-19T10:36:18;25.10;99.90
21429;DHT22;10875;50.444;30.540;2022-08-19T10:38:47;25.00;99.90
21429;DHT22;10875;50.444;30.540;2022-08-19T10:41:15;25.10;99.90
21429;DHT22;10875;50.444;30.540;2022-08-19T10:43:42;25.30;99.90
21429;DHT22;10875;50.444;30.540;2022-08-19T10:46:13;25.70;99.90
21429;DHT22;10875;50.444;30.540;2022-08-19T10:48:40;26.20;99.90
21429;DHT22;10875;50.444;30.540;2022-08-19T10:51:06;26.40;99.90
21429;DHT22;10875;50.444;30.540;2022-08-19T10:53:51;26.40;99.90
21429;DHT22;10875;50.444;30.540;2022-08-19T10:56:17;26.20;99.90
21429;DHT22;10875;50.444;30.540;2022-08-19T10:59:02;26.20;99.90
21429;DHT22;10875;50.444;30.540;2022-08-19T11:01:29;26.10;99.90
21429;DHT22;10875;50.444;30.540;2022-08-19T11:03:56;25.90;99.90
21429;DHT22;10875;50.444;30.540;2022-08-19T11:06:23;25.80;99.90
21429;DHT22;10875;50.444;30.540;2022-08-19T11:08:55;25.80;99.90
21429;DHT22;10875;50.444;30.540;2022-08-19T11:11:21;25.90;99.90
21429;DHT22;10875;50.444;30.540;2022-08-19T11:13:47;26.10;99.90
21429;DHT22;10875;50.444;30.540;2022-08-19T11:16:16;26.10;99.90
21429;DHT22;10875;50.444;30.540;2022-08-19T11:18:44;25.90;99.90
21429;DHT22;10875;50.444;30.540;2022-08-19T11:21:14;25.70;99.90
21429;DHT22;10875;50.444;30.540;2022-08-19T11:23:42;25.50;99.90
21429;DHT22;10875;50.444;30.540;2022-08-19T11:26:08;25.40;99.90
21429;DHT22;10875;50.444;30.540;2022-08-19T11:28:34;25.30;99.90
21429;DHT22;10875;50.444;30.540;2022-08-19T11:31:00;25.30;99.90
21429;DHT22;10875;50.444;30.540;2022-08-19T11:33:29;25.20;99.90
21429;DHT22;10875;50.444;30.540;2022-08-19T11:35:58;25.20;99.90
21429;DHT22;10875;50.444;30.540;2022-08-19T11:38:25;25.30;99.90
21429;DHT22;10875;50.444;30.540;2022-08-19T11:40:55;25.60;99.90
21429;DHT22;10875;50.444;30.540;2022-08-19T11:43:21;26.40;99.90
21429;DHT22;10875;50.444;30.540;2022-08-19T11:45:46;26.60;99.90
21429;DHT22;10875;50.444;30.540;2022-08-19T11:48:13;26.50;99.90
21429;DHT22;10875;50.444;30.540;2022-08-19T11:50:39;26.20;99.90
21429;DHT22;10875;50.444;30.540;2022-08-19T11:53:06;25.90;99.90
21429;DHT22;10875;50.444;30.540;2022-08-19T11:55:32;25.60;99.90
21429;DHT22;10875;50.444;30.540;2022-08-19T11:57:57;25.40;99.90
21429;DHT22;10875;50.444;30.540;2022-08-19T12:00:23;25.20;99.90
21429;DHT22;10875;50.444;30.540;2022-08-19T12:02:48;25.20;99.90
21429;DHT22;10875;50.444;30.540;2022-08-19T12:05:14;25.20;99.90
21429;DHT22;10875;50.444;30.540;2022-08-19T12:07:40;25.20;99.90
21429;DHT22;10875;50.444;30.540;2022-08-19T12:10:08;25.20;99.90
21429;DHT22;10875;50.444;30.540;2022-08-19T12:12:33;25.30;99.90
21429;DHT22;10875;50.444;30.540;2022-08-19T12:14:59;25.30;99.90
21429;DHT22;10875;50.444;30.540;2022-08-19T12:17:26;25.30;99.90
21429;DHT22;10875;50.444;30.540;2022-08-19T12:19:52;25.30;99.90
21429;DHT22;10875;50.444;30.540;2022-08-19T12:22:18;25.30;99.90
21429;DHT22;10875;50.444;30.540;2022-08-19T12:24:46;25.20;99.90
21429;DHT22;10875;50.444;30.540;2022-08-19T12:27:11;25.00;99.90
21429;DHT22;10875;50.444;30.540;2022-08-19T12:29:37;24.90;99.90
21429;DHT22;10875;50.444;30.540;2022-08-19T12:32:03;24.70;99.90
21429;DHT22;10875;50.444;30.540;2022-08-19T12:34:30;24.60;99.90
21429;DHT22;10875;50.444;30.540;2022-08-19T12:37:01;24.60;99.90
21429;DHT22;10875;50.444;30.540;2022-08-19T12:39:28;24.60;99.90
21429;DHT22;10875;50.444;30.540;2022-08-19T12:41:55;24.40;99.90
21429;DHT22;10875;50.444;30.540;2022-08-19T12:44:22;24.30;99.90
21429;DHT22;10875;50.444;30.540;2022-08-19T12:46:48;24.30;99.90
21429;DHT22;10875;50.444;30.540;2022-08-19T12:49:14;24.20;99.90
21429;DHT22;10875;50.444;30.540;2022-08-19T12:51:41;24.20;99.90
21429;DHT22;10875;50.444;30.540;2022-08-19T12:54:07;24.20;99.90
21429;DHT22;10875;50.444;30.540;2022-08-19T12:56:33;24.20;99.90
21429;DHT22;10875;50.444;30.540;2022-08-19T12:59:01;24.20;99.90
21429;DHT22;10875;50.444;30.540;2022-08-19T13:01:28;24.20;99.90
21429;DHT22;10875;50.444;30.540;2022-08-19T13:03:58;24.10;99.90
21429;DHT22;10875;50.444;30.540;2022-08-19T13:06:23;24.10;99.90
21429;DHT22;10875;50.444;30.540;2022-08-19T13:08:49;23.90;99.90
21429;DHT22;10875;50.444;30.540;2022-08-19T13:11:17;23.80;99.90
21429;DHT22;10875;50.444;30.540;2022-08-19T13:13:44;23.70;99.90
21429;DHT22;10875;50.444;30.540;2022-08-19T13:16:11;23.70;99.90
21429;DHT22;10875;50.444;30.540;2022-08-19T13:18:38;23.60;99.90
21429;DHT22;10875;50.444;30.540;2022-08-19T13:21:06;23.60;99.90
21429;DHT22;10875;50.444;30.540;2022-08-19T13:23:33;23.60;99.90
21429;DHT22;10875;50.444;30.540;2022-08-19T13:26:00;23.50;99.90
21429;DHT22;10875;50.444;30.540;2022-08-19T13:28:27;23.50;99.90
21429;DHT22;10875;50.444;30.540;2022-08-19T13:31:16;23.40;99.90
21429;DHT22;10875;50.444;30.540;2022-08-19T13:34:00;23.40;99.90
21429;DHT22;10875;50.444;30.540;2022-08-19T13:36:26;23.30;99.90
21429;DHT22;10875;50.444;30.540;2022-08-19T13:38:52;23.30;99.90
21429;DHT22;10875;50.444;30.540;2022-08-19T13:41:17;23.30;99.90
21429;DHT22;10875;50.444;30.540;2022-08-19T13:43:44;23.30;99.90
21429;DHT22;10875;50.444;30.540;2022-08-19T13:46:11;23.30;99.90
21429;DHT22;10875;50.444;30.540;2022-08-19T13:48:39;23.30;99.90
21429;DHT22;10875;50.444;30.540;2022-08-19T13:51:06;23.40;99.90
21429;DHT22;10875;50.444;30.540;2022-08-19T13:53:38;23.20;99.90
21429;DHT22;10875;50.444;30.540;2022-08-19T13:56:08;23.20;99.90
21429;DHT22;10875;50.444;30.540;2022-08-19T13:58:34;23.20;99.90
21429;DHT22;10875;50.444;30.540;2022-08-19T14:01:00;23.10;99.90
21429;DHT22;10875;50.444;30.540;2022-08-19T14:03:27;23.10;99.90
21429;DHT22;10875;50.444;30.540;2022-08-19T14:05:52;23.10;99.90
21429;DHT22;10875;50.444;30.540;2022-08-19T14:08:18;23.00;99.90
21429;DHT22;10875;50.444;30.540;2022-08-19T14:10:45;22.90;99.90
21429;DHT22;10875;50.444;30.540;2022-08-19T14:13:14;22.90;99.90
21429;DHT22;10875;50.444;30.540;2022-08-19T14:15:40;22.80;99.90
21429;DHT22;10875;50.444;30.540;2022-08-19T14:18:05;22.90;99.90
21429;DHT22;10875;50.444;30.540;2022-08-19T14:20:36;22.80;99.90
21429;DHT22;10875;50.444;30.540;2022-08-19T14:23:03;22.80;99.90
21429;DHT22;10875;50.444;30.540;2022-08-19T14:25:30;22.80;99.90
21429;DHT22;10875;50.444;30.540;2022-08-19T14:27:57;22.80;99.90
21429;DHT22;10875;50.444;30.540;2022-08-19T14:30:33;22.80;99.90
21429;DHT22;10875;50.444;30.540;2022-08-19T14:33:00;22.80;99.90
21429;DHT22;10875;50.444;30.540;2022-08-19T14:35:28;22.80;99.90
21429;DHT22;10875;50.444;30.540;2022-08-19T14:37:54;22.80;99.90
21429;DHT22;10875;50.444;30.540;2022-08-19T14:40:23;22.90;99.90
21429;DHT22;10875;50.444;30.540;2022-08-19T14:43:00;22.80;99.90
21429;DHT22;10875;50.444;30.540;2022-08-19T14:45:30;22.80;99.90
21429;DHT22;10875;50.444;30.540;2022-08-19T14:47:56;22.90;99.90
21429;DHT22;10875;50.444;30.540;2022-08-19T14:50:21;22.80;99.90
21429;DHT22;10875;50.444;30.540;2022-08-19T14:52:48;22.90;99.90
21429;DHT22;10875;50.444;30.540;2022-08-19T14:55:16;22.80;99.90
21429;DHT22;10875;50.444;30.540;2022-08-19T14:57:43;22.90;99.90
21429;DHT22;10875;50.444;30.540;2022-08-19T15:00:09;22.90;99.90
21429;DHT22;10875;50.444;30.540;2022-08-19T15:02:39;23.00;99.90
21429;DHT22;10875;50.444;30.540;2022-08-19T15:05:05;23.10;99.90
21429;DHT22;10875;50.444;30.540;2022-08-19T15:07:31;23.10;99.90
21429;DHT22;10875;50.444;30.540;2022-08-19T15:09:57;23.00;99.90
21429;DHT22;10875;50.444;30.540;2022-08-19T15:12:23;22.90;99.90
21429;DHT22;10875;50.444;30.540;2022-08-19T15:14:49;22.80;99.90
21429;DHT22;10875;50.444;30.540;2022-08-19T15:17:18;22.70;99.90
21429;DHT22;10875;50.444;30.540;2022-08-19T15:19:44;22.70;99.90
21429;DHT22;10875;50.444;30.540;2022-08-19T15:22:11;22.60;99.90